sensor_id;sensor_type;location;lat;lon;timestamp;P1;durP1;ratioP1;P2;durP2;ratioP2
75350;SDS011;63942;55.814;37.340;2022-11-15T00:01:42;2.40;;;0.50;;
75350;SDS011;63942;55.814;37.340;2022-11-15T00:04:08;1.73;;;0.60;;
75350;SDS011;63942;55.814;37.340;2022-11-15T00:06:35;1.77;;;0.40;;
75350;SDS011;63942;55.814;37.340;2022-11-15T00:09:02;2.25;;;0.60;;
75350;SDS011;63942;55.814;37.340;2022-11-15T00:11:28;2.13;;;0.47;;
75350;SDS011;63942;55.814;37.340;2022-11-15T00:13:55;2.20;;;0.50;;
75350;SDS011;63942;55.814;37.340;2022-11-15T00:16:22;1.75;;;0.40;;
75350;SDS011;63942;55.814;37.340;2022-11-15T00:18:48;2.67;;;0.40;;
75350;SDS011;63942;55.814;37.340;2022-11-15T00:21:15;2.00;;;0.50;;
75350;SDS011;63942;55.814;37.340;2022-11-15T00:23:41;1.90;;;0.40;;
75350;SDS011;63942;55.814;37.340;2022-11-15T00:26:10;2.63;;;0.60;;
75350;SDS011;63942;55.814;37.340;2022-11-15T00:28:36;1.98;;;0.50;;
75350;SDS011;63942;55.814;37.340;2022-11-15T00:31:03;2.35;;;0.55;;
75350;SDS011;63942;55.814;37.340;2022-11-15T00:33:30;2.22;;;0.50;;
75350;SDS011;63942;55.814;37.340;2022-11-15T00:36:04;1.90;;;0.50;;
75350;SDS011;63942;55.814;37.340;2022-11-15T00:38:31;1.92;;;0.50;;
75350;SDS011;63942;55.814;37.340;2022-11-15T00:40:58;1.92;;;0.52;;
75350;SDS011;63942;55.814;37.340;2022-11-15T00:43:24;2.83;;;0.60;;
75350;SDS011;63942;55.814;37.340;2022-11-15T00:45:51;2.42;;;0.40;;
75350;SDS011;63942;55.814;37.340;2022-11-15T00:48:17;1.85;;;0.40;;
75350;SDS011;63942;55.814;37.340;2022-11-15T00:50:43;2.47;;;0.52;;
75350;SDS011;63942;55.814;37.340;2022-11-15T00:53:09;2.03;;;0.50;;
75350;SDS011;63942;55.814;37.340;2022-11-15T00:55:35;1.98;;;0.50;;
75350;SDS011;63942;55.814;37.340;2022-11-15T00:58:01;2.08;;;0.60;;
75350;SDS011;63942;55.814;37.340;2022-11-15T01:00:27;2.00;;;0.50;;
75350;SDS011;63942;55.814;37.340;2022-11-15T01:02:53;1.60;;;0.50;;
75350;SDS011;63942;55.814;37.340;2022-11-15T01:05:19;2.08;;;0.43;;
75350;SDS011;63942;55.814;37.340;2022-11-15T01:07:45;2.20;;;0.50;;
75350;SDS011;63942;55.814;37.340;2022-11-15T01:10:11;1.92;;;0.45;;
75350;SDS011;63942;55.814;37.340;2022-11-15T01:12:37;2.42;;;0.50;;
75350;SDS011;63942;55.814;37.340;2022-11-15T01:15:04;1.55;;;0.45;;
75350;SDS011;63942;55.814;37.340;2022-11-15T01:17:30;1.50;;;0.45;;
75350;SDS011;63942;55.814;37.340;2022-11-15T01:19:57;1.92;;;0.57;;
75350;SDS011;63942;55.814;37.340;2022-11-15T01:22:23;1.70;;;0.50;;
75350;SDS011;63942;55.814;37.340;2022-11-15T01:24:49;1.75;;;0.40;;
75350;SDS011;63942;55.814;37.340;2022-11-15T01:27:16;1.77;;;0.50;;
75350;SDS011;63942;55.814;37.340;2022-11-15T01:29:42;1.65;;;0.50;;
75350;SDS011;63942;55.814;37.340;2022-11-15T01:32:08;2.22;;;0.40;;
75350;SDS011;63942;55.814;37.340;2022-11-15T01:34:34;2.22;;;0.50;;
75350;SDS011;63942;55.814;37.340;2022-11-15T01:37:00;2.33;;;0.47;;
75350;SDS011;63942;55.814;37.340;2022-11-15T01:39:26;1.83;;;0.47;;
75350;SDS011;63942;55.814;37.340;2022-11-15T01:41:53;2.03;;;0.50;;
75350;SDS011;63942;55.814;37.340;2022-11-15T01:46:54;2.17;;;0.40;;
75350;SDS011;63942;55.814;37.340;2022-11-15T01:49:21;2.30;;;0.55;;
75350;SDS011;63942;55.814;37.340;2022-11-15T01:51:48;1.75;;;0.47;;
75350;SDS011;63942;55.814;37.340;2022-11-15T01:54:15;2.22;;;0.40;;
75350;SDS011;63942;55.814;37.340;2022-11-15T01:56:50;1.88;;;0.50;;
75350;SDS011;63942;55.814;37.340;2022-11-15T01:59:17;2.00;;;0.50;;
75350;SDS011;63942;55.814;37.340;2022-11-15T02:01:43;2.00;;;0.55;;
75350;SDS011;63942;55.814;37.340;2022-11-15T02:04:11;2.15;;;0.55;;
75350;SDS011;63942;55.814;37.340;2022-11-15T02:06:38;2.03;;;0.45;;
75350;SDS011;63942;55.814;37.340;2022-11-15T02:09:05;2.20;;;0.60;;
75350;SDS011;63942;55.814;37.340;2022-11-15T02:11:31;1.80;;;0.50;;
75350;SDS011;63942;55.814;37.340;2022-11-15T02:13:58;2.17;;;0.52;;
75350;SDS011;63942;55.814;37.340;2022-11-15T02:16:48;1.77;;;0.38;;
75350;SDS011;63942;55.814;37.340;2022-11-15T02:40:12;1.95;;;0.47;;
75350;SDS011;63942;55.814;37.340;2022-11-15T02:42:46;2.10;;;0.40;;
75350;SDS011;63942;55.814;37.340;2022-11-15T02:45:39;2.83;;;0.50;;
75350;SDS011;63942;55.814;37.340;2022-11-15T02:48:08;1.95;;;0.50;;
75350;SDS011;63942;55.814;37.340;2022-11-15T02:50:34;3.33;;;0.50;;
75350;SDS011;63942;55.814;37.340;2022-11-15T02:53:01;2.03;;;0.60;;
75350;SDS011;63942;55.814;37.340;2022-11-15T02:55:32;3.28;;;0.82;;
75350;SDS011;63942;55.814;37.340;2022-11-15T02:58:16;2.03;;;0.50;;
75350;SDS011;63942;55.814;37.340;2022-11-15T03:06:04;2.00;;;0.60;;
75350;SDS011;63942;55.814;37.340;2022-11-15T03:08:32;3.00;;;0.57;;
75350;SDS011;63942;55.814;37.340;2022-11-15T03:11:13;2.22;;;0.60;;
75350;SDS011;63942;55.814;37.340;2022-11-15T03:13:45;1.80;;;0.60;;
75350;SDS011;63942;55.814;37.340;2022-11-15T03:18:45;2.35;;;0.60;;
75350;SDS011;63942;55.814;37.340;2022-11-15T03:21:13;2.70;;;0.52;;
75350;SDS011;63942;55.814;37.340;2022-11-15T03:23:40;1.95;;;0.63;;
75350;SDS011;63942;55.814;37.340;2022-11-15T03:26:08;2.60;;;0.60;;
75350;SDS011;63942;55.814;37.340;2022-11-15T03:28:40;2.55;;;0.70;;
75350;SDS011;63942;55.814;37.340;2022-11-15T03:31:07;2.53;;;0.60;;
75350;SDS011;63942;55.814;37.340;2022-11-15T03:33:53;2.05;;;0.50;;
75350;SDS011;63942;55.814;37.340;2022-11-15T03:36:21;3.47;;;0.80;;
75350;SDS011;63942;55.814;37.340;2022-11-15T03:38:48;1.90;;;0.60;;
75350;SDS011;63942;55.814;37.340;2022-11-15T03:41:36;2.65;;;0.55;;
75350;SDS011;63942;55.814;37.340;2022-11-15T03:44:04;2.55;;;0.70;;
75350;SDS011;63942;55.814;37.340;2022-11-15T03:46:32;2.05;;;0.70;;
75350;SDS011;63942;55.814;37.340;2022-11-15T03:49:08;2.20;;;0.70;;
75350;SDS011;63942;55.814;37.340;2022-11-15T03:51:35;2.28;;;0.70;;
75350;SDS011;63942;55.814;37.340;2022-11-15T03:54:03;2.00;;;0.50;;
75350;SDS011;63942;55.814;37.340;2022-11-15T03:56:29;2.22;;;0.60;;
75350;SDS011;63942;55.814;37.340;2022-11-15T03:58:55;2.80;;;0.80;;
75350;SDS011;63942;55.814;37.340;2022-11-15T04:01:21;2.47;;;0.60;;
75350;SDS011;63942;55.814;37.340;2022-11-15T04:03:47;2.83;;;0.65;;
75350;SDS011;63942;55.814;37.340;2022-11-15T04:06:13;2.35;;;0.60;;
75350;SDS011;63942;55.814;37.340;2022-11-15T04:08:39;1.88;;;0.65;;
75350;SDS011;63942;55.814;37.340;2022-11-15T04:11:05;3.05;;;0.70;;
75350;SDS011;63942;55.814;37.340;2022-11-15T04:13:31;2.05;;;0.70;;
75350;SDS011;63942;55.814;37.340;2022-11-15T04:15:57;2.97;;;0.65;;
75350;SDS011;63942;55.814;37.340;2022-11-15T04:18:23;1.60;;;0.60;;
75350;SDS011;63942;55.814;37.340;2022-11-15T04:20:49;2.83;;;0.60;;
75350;SDS011;63942;55.814;37.340;2022-11-15T04:23:34;2.40;;;0.77;;
75350;SDS011;63942;55.814;37.340;2022-11-15T04:26:32;3.35;;;0.50;;
75350;SDS011;63942;55.814;37.340;2022-11-15T04:28:58;2.28;;;0.60;;
75350;SDS011;63942;55.814;37.340;2022-11-15T04:31:43;2.53;;;0.60;;
75350;SDS011;63942;55.814;37.340;2022-11-15T04:34:09;2.45;;;0.57;;
75350;SDS011;63942;55.814;37.340;2022-11-15T04:36:36;1.90;;;0.70;;
75350;SDS011;63942;55.814;37.340;2022-11-15T04:39:20;2.75;;;0.50;;
75350;SDS011;63942;55.814;37.340;2022-11-15T04:41:46;2.38;;;0.70;;
75350;SDS011;63942;55.814;37.340;2022-11-15T04:44:12;2.17;;;0.70;;
75350;SDS011;63942;55.814;37.340;2022-11-15T04:46:38;2.25;;;0.80;;
75350;SDS011;63942;55.814;37.340;2022-11-15T04:49:04;2.35;;;0.60;;
75350;SDS011;63942;55.814;37.340;2022-11-15T04:51:30;2.35;;;0.60;;
75350;SDS011;63942;55.814;37.340;2022-11-15T04:53:56;2.13;;;0.60;;
75350;SDS011;63942;55.814;37.340;2022-11-15T04:56:23;3.22;;;0.70;;
75350;SDS011;63942;55.814;37.340;2022-11-15T04:58:49;2.13;;;0.70;;
75350;SDS011;63942;55.814;37.340;2022-11-15T05:01:15;3.72;;;0.70;;
75350;SDS011;63942;55.814;37.340;2022-11-15T05:03:42;2.17;;;0.60;;
75350;SDS011;63942;55.814;37.340;2022-11-15T05:06:26;2.78;;;0.60;;
75350;SDS011;63942;55.814;37.340;2022-11-15T05:08:53;2.20;;;0.60;;
75350;SDS011;63942;55.814;37.340;2022-11-15T05:11:19;2.28;;;0.60;;
75350;SDS011;63942;55.814;37.340;2022-11-15T05:13:46;2.13;;;0.63;;
75350;SDS011;63942;55.814;37.340;2022-11-15T05:16:12;2.30;;;0.73;;
75350;SDS011;63942;55.814;37.340;2022-11-15T05:18:38;2.55;;;0.60;;
75350;SDS011;63942;55.814;37.340;2022-11-15T05:21:09;2.20;;;0.70;;
75350;SDS011;63942;55.814;37.340;2022-11-15T05:23:36;2.20;;;0.60;;
75350;SDS011;63942;55.814;37.340;2022-11-15T05:26:02;2.25;;;0.70;;
75350;SDS011;63942;55.814;37.340;2022-11-15T05:28:29;2.35;;;0.70;;
75350;SDS011;63942;55.814;37.340;2022-11-15T05:31:01;2.40;;;0.50;;
75350;SDS011;63942;55.814;37.340;2022-11-15T05:33:28;3.20;;;0.70;;
75350;SDS011;63942;55.814;37.340;2022-11-15T05:35:54;1.92;;;0.60;;
75350;SDS011;63942;55.814;37.340;2022-11-15T05:38:22;2.70;;;0.60;;
75350;SDS011;63942;55.814;37.340;2022-11-15T05:40:49;2.45;;;0.75;;
75350;SDS011;63942;55.814;37.340;2022-11-15T05:43:15;2.33;;;0.70;;
75350;SDS011;63942;55.814;37.340;2022-11-15T05:45:41;2.90;;;0.70;;
75350;SDS011;63942;55.814;37.340;2022-11-15T05:48:07;2.22;;;0.60;;
75350;SDS011;63942;55.814;37.340;2022-11-15T05:50:35;2.97;;;0.70;;
75350;SDS011;63942;55.814;37.340;2022-11-15T05:53:02;2.22;;;0.70;;
75350;SDS011;63942;55.814;37.340;2022-11-15T05:55:28;2.15;;;0.70;;
75350;SDS011;63942;55.814;37.340;2022-11-15T05:57:55;2.10;;;0.77;;
75350;SDS011;63942;55.814;37.340;2022-11-15T06:00:21;2.20;;;0.65;;
75350;SDS011;63942;55.814;37.340;2022-11-15T06:02:47;2.33;;;0.70;;
75350;SDS011;63942;55.814;37.340;2022-11-15T06:05:13;3.03;;;0.65;;
75350;SDS011;63942;55.814;37.340;2022-11-15T06:07:39;2.92;;;0.60;;
75350;SDS011;63942;55.814;37.340;2022-11-15T06:10:05;3.15;;;0.70;;
75350;SDS011;63942;55.814;37.340;2022-11-15T06:12:31;2.72;;;0.60;;
75350;SDS011;63942;55.814;37.340;2022-11-15T06:14:57;2.45;;;0.60;;
75350;SDS011;63942;55.814;37.340;2022-11-15T06:17:24;3.20;;;0.82;;
75350;SDS011;63942;55.814;37.340;2022-11-15T06:19:50;2.60;;;0.70;;
75350;SDS011;63942;55.814;37.340;2022-11-15T06:22:16;3.33;;;0.77;;
75350;SDS011;63942;55.814;37.340;2022-11-15T06:24:42;3.42;;;0.95;;
75350;SDS011;63942;55.814;37.340;2022-11-15T06:27:10;2.63;;;0.75;;
75350;SDS011;63942;55.814;37.340;2022-11-15T06:29:36;2.13;;;0.77;;
75350;SDS011;63942;55.814;37.340;2022-11-15T06:32:02;2.35;;;0.70;;
75350;SDS011;63942;55.814;37.340;2022-11-15T06:34:28;2.75;;;0.70;;
75350;SDS011;63942;55.814;37.340;2022-11-15T06:36:54;2.08;;;0.68;;
75350;SDS011;63942;55.814;37.340;2022-11-15T06:39:20;2.65;;;0.70;;
75350;SDS011;63942;55.814;37.340;2022-11-15T06:41:46;2.05;;;0.65;;
75350;SDS011;63942;55.814;37.340;2022-11-15T06:44:12;2.50;;;0.80;;
75350;SDS011;63942;55.814;37.340;2022-11-15T06:46:38;2.70;;;0.80;;
75350;SDS011;63942;55.814;37.340;2022-11-15T06:49:04;3.30;;;0.80;;
75350;SDS011;63942;55.814;37.340;2022-11-15T06:51:30;3.10;;;0.82;;
75350;SDS011;63942;55.814;37.340;2022-11-15T06:53:56;2.97;;;0.90;;
75350;SDS011;63942;55.814;37.340;2022-11-15T06:56:22;2.47;;;0.80;;
75350;SDS011;63942;55.814;37.340;2022-11-15T06:58:48;2.78;;;0.80;;
75350;SDS011;63942;55.814;37.340;2022-11-15T07:01:14;2.25;;;0.73;;
75350;SDS011;63942;55.814;37.340;2022-11-15T07:03:41;2.53;;;0.80;;
75350;SDS011;63942;55.814;37.340;2022-11-15T07:06:08;2.88;;;0.80;;
75350;SDS011;63942;55.814;37.340;2022-11-15T07:08:34;2.50;;;0.70;;
75350;SDS011;63942;55.814;37.340;2022-11-15T07:11:02;2.50;;;0.88;;
75350;SDS011;63942;55.814;37.340;2022-11-15T07:13:29;2.63;;;0.93;;
75350;SDS011;63942;55.814;37.340;2022-11-15T07:15:57;3.80;;;0.88;;
75350;SDS011;63942;55.814;37.340;2022-11-15T07:18:24;3.05;;;0.80;;
75350;SDS011;63942;55.814;37.340;2022-11-15T07:20:52;2.17;;;0.80;;
75350;SDS011;63942;55.814;37.340;2022-11-15T07:23:18;3.70;;;0.70;;
75350;SDS011;63942;55.814;37.340;2022-11-15T07:25:44;2.67;;;0.77;;
75350;SDS011;63942;55.814;37.340;2022-11-15T07:28:10;3.55;;;0.98;;
75350;SDS011;63942;55.814;37.340;2022-11-15T07:30:36;2.40;;;0.85;;
75350;SDS011;63942;55.814;37.340;2022-11-15T07:33:02;2.75;;;0.90;;
75350;SDS011;63942;55.814;37.340;2022-11-15T07:35:28;2.35;;;0.70;;
75350;SDS011;63942;55.814;37.340;2022-11-15T07:37:59;3.60;;;0.80;;
75350;SDS011;63942;55.814;37.340;2022-11-15T07:40:30;2.25;;;0.77;;
75350;SDS011;63942;55.814;37.340;2022-11-15T07:43:00;3.03;;;1.02;;
75350;SDS011;63942;55.814;37.340;2022-11-15T07:45:27;3.20;;;0.73;;
75350;SDS011;63942;55.814;37.340;2022-11-15T07:47:53;3.85;;;0.85;;
75350;SDS011;63942;55.814;37.340;2022-11-15T07:50:21;2.72;;;0.90;;
75350;SDS011;63942;55.814;37.340;2022-11-15T07:52:47;2.38;;;0.85;;
75350;SDS011;63942;55.814;37.340;2022-11-15T07:55:13;2.70;;;0.75;;
75350;SDS011;63942;55.814;37.340;2022-11-15T07:57:39;3.22;;;0.90;;
75350;SDS011;63942;55.814;37.340;2022-11-15T08:00:05;3.08;;;0.90;;
75350;SDS011;63942;55.814;37.340;2022-11-15T08:02:32;3.08;;;0.85;;
75350;SDS011;63942;55.814;37.340;2022-11-15T08:04:58;3.00;;;0.90;;
75350;SDS011;63942;55.814;37.340;2022-11-15T08:07:24;3.90;;;0.80;;
75350;SDS011;63942;55.814;37.340;2022-11-15T08:09:50;3.08;;;0.88;;
75350;SDS011;63942;55.814;37.340;2022-11-15T08:12:16;3.38;;;0.90;;
75350;SDS011;63942;55.814;37.340;2022-11-15T08:14:42;2.78;;;0.75;;
75350;SDS011;63942;55.814;37.340;2022-11-15T08:17:09;3.95;;;1.00;;
75350;SDS011;63942;55.814;37.340;2022-11-15T08:19:35;2.72;;;0.80;;
75350;SDS011;63942;55.814;37.340;2022-11-15T08:22:01;3.08;;;0.80;;
75350;SDS011;63942;55.814;37.340;2022-11-15T08:24:27;2.95;;;0.88;;
75350;SDS011;63942;55.814;37.340;2022-11-15T08:26:53;3.00;;;0.77;;
75350;SDS011;63942;55.814;37.340;2022-11-15T08:29:19;2.70;;;0.80;;
75350;SDS011;63942;55.814;37.340;2022-11-15T08:31:45;3.40;;;0.90;;
75350;SDS011;63942;55.814;37.340;2022-11-15T08:34:11;3.22;;;0.80;;
75350;SDS011;63942;55.814;37.340;2022-11-15T08:36:37;3.20;;;0.80;;
75350;SDS011;63942;55.814;37.340;2022-11-15T08:39:03;3.00;;;0.80;;
75350;SDS011;63942;55.814;37.340;2022-11-15T08:41:31;3.13;;;0.93;;
75350;SDS011;63942;55.814;37.340;2022-11-15T08:43:58;3.28;;;0.70;;
75350;SDS011;63942;55.814;37.340;2022-11-15T08:46:24;3.63;;;0.80;;
75350;SDS011;63942;55.814;37.340;2022-11-15T08:48:51;2.97;;;0.98;;
75350;SDS011;63942;55.814;37.340;2022-11-15T08:51:17;2.58;;;0.70;;
75350;SDS011;63942;55.814;37.340;2022-11-15T08:53:43;3.13;;;0.95;;
75350;SDS011;63942;55.814;37.340;2022-11-15T08:56:10;3.25;;;0.90;;
75350;SDS011;63942;55.814;37.340;2022-11-15T08:58:36;3.15;;;0.80;;
75350;SDS011;63942;55.814;37.340;2022-11-15T09:01:03;3.85;;;1.00;;
75350;SDS011;63942;55.814;37.340;2022-11-15T09:03:30;4.57;;;0.80;;
75350;SDS011;63942;55.814;37.340;2022-11-15T09:05:57;3.67;;;1.05;;
75350;SDS011;63942;55.814;37.340;2022-11-15T09:08:23;2.72;;;0.80;;
75350;SDS011;63942;55.814;37.340;2022-11-15T09:10:50;3.05;;;0.80;;
75350;SDS011;63942;55.814;37.340;2022-11-15T09:13:16;3.33;;;0.90;;
75350;SDS011;63942;55.814;37.340;2022-11-15T09:15:42;4.55;;;0.95;;
75350;SDS011;63942;55.814;37.340;2022-11-15T09:18:08;2.85;;;0.90;;
75350;SDS011;63942;55.814;37.340;2022-11-15T09:20:34;4.22;;;0.90;;
75350;SDS011;63942;55.814;37.340;2022-11-15T09:23:01;3.42;;;0.90;;
75350;SDS011;63942;55.814;37.340;2022-11-15T09:25:27;3.25;;;0.80;;
75350;SDS011;63942;55.814;37.340;2022-11-15T09:27:53;2.63;;;0.68;;
75350;SDS011;63942;55.814;37.340;2022-11-15T09:30:19;2.70;;;0.80;;
75350;SDS011;63942;55.814;37.340;2022-11-15T09:32:45;3.63;;;0.90;;
75350;SDS011;63942;55.814;37.340;2022-11-15T09:35:11;4.00;;;1.02;;
75350;SDS011;63942;55.814;37.340;2022-11-15T09:37:37;2.78;;;0.85;;
75350;SDS011;63942;55.814;37.340;2022-11-15T09:40:03;3.28;;;1.08;;
75350;SDS011;63942;55.814;37.340;2022-11-15T09:52:59;3.67;;;0.90;;
75350;SDS011;63942;55.814;37.340;2022-11-15T09:55:29;3.20;;;1.20;;
75350;SDS011;63942;55.814;37.340;2022-11-15T09:58:03;3.30;;;1.13;;
75350;SDS011;63942;55.814;37.340;2022-11-15T10:00:38;4.13;;;1.33;;
75350;SDS011;63942;55.814;37.340;2022-11-15T10:03:12;4.35;;;1.20;;
75350;SDS011;63942;55.814;37.340;2022-11-15T10:05:44;2.72;;;1.00;;
75350;SDS011;63942;55.814;37.340;2022-11-15T10:10:50;4.50;;;1.20;;
75350;SDS011;63942;55.814;37.340;2022-11-15T10:13:24;5.40;;;1.60;;
75350;SDS011;63942;55.814;37.340;2022-11-15T10:15:51;5.03;;;1.70;;
75350;SDS011;63942;55.814;37.340;2022-11-15T10:18:23;3.80;;;1.40;;
75350;SDS011;63942;55.814;37.340;2022-11-15T10:20:59;5.30;;;1.58;;
75350;SDS011;63942;55.814;37.340;2022-11-15T10:23:28;4.93;;;1.60;;
75350;SDS011;63942;55.814;37.340;2022-11-15T10:25:57;4.13;;;1.20;;
75350;SDS011;63942;55.814;37.340;2022-11-15T10:28:29;4.68;;;1.30;;
75350;SDS011;63942;55.814;37.340;2022-11-15T10:30:56;3.70;;;1.50;;
75350;SDS011;63942;55.814;37.340;2022-11-15T10:33:32;3.78;;;1.15;;
75350;SDS011;63942;55.814;37.340;2022-11-15T10:38:51;4.22;;;1.52;;
75350;SDS011;63942;55.814;37.340;2022-11-15T10:41:30;5.93;;;1.50;;
75350;SDS011;63942;55.814;37.340;2022-11-15T10:46:35;5.07;;;1.50;;
75350;SDS011;63942;55.814;37.340;2022-11-15T10:49:19;4.30;;;1.38;;
75350;SDS011;63942;55.814;37.340;2022-11-15T10:56:52;3.42;;;1.05;;
75350;SDS011;63942;55.814;37.340;2022-11-15T10:59:29;3.28;;;1.33;;
75350;SDS011;63942;55.814;37.340;2022-11-15T11:01:56;4.55;;;1.50;;
75350;SDS011;63942;55.814;37.340;2022-11-15T11:04:22;3.75;;;1.35;;
75350;SDS011;63942;55.814;37.340;2022-11-15T11:06:50;5.13;;;1.25;;
75350;SDS011;63942;55.814;37.340;2022-11-15T11:11:51;4.70;;;1.40;;
75350;SDS011;63942;55.814;37.340;2022-11-15T11:14:25;4.05;;;1.25;;
75350;SDS011;63942;55.814;37.340;2022-11-15T11:19:41;5.28;;;1.70;;
75350;SDS011;63942;55.814;37.340;2022-11-15T11:35:30;4.43;;;1.40;;
75350;SDS011;63942;55.814;37.340;2022-11-15T11:38:06;4.65;;;1.50;;
75350;SDS011;63942;55.814;37.340;2022-11-15T11:51:10;4.22;;;1.70;;
75350;SDS011;63942;55.814;37.340;2022-11-15T11:53:46;5.28;;;1.50;;
75350;SDS011;63942;55.814;37.340;2022-11-15T11:56:19;5.68;;;1.50;;
75350;SDS011;63942;55.814;37.340;2022-11-15T11:58:47;3.65;;;1.60;;
75350;SDS011;63942;55.814;37.340;2022-11-15T12:01:15;4.32;;;1.30;;
75350;SDS011;63942;55.814;37.340;2022-11-15T12:03:51;4.57;;;1.75;;
75350;SDS011;63942;55.814;37.340;2022-11-15T12:06:23;5.03;;;1.40;;
75350;SDS011;63942;55.814;37.340;2022-11-15T12:14:05;3.75;;;1.52;;
75350;SDS011;63942;55.814;37.340;2022-11-15T12:16:36;5.18;;;1.40;;
75350;SDS011;63942;55.814;37.340;2022-11-15T12:19:04;3.45;;;1.48;;
75350;SDS011;63942;55.814;37.340;2022-11-15T12:27:02;5.10;;;1.60;;
75350;SDS011;63942;55.814;37.340;2022-11-15T12:29:35;3.78;;;1.40;;
75350;SDS011;63942;55.814;37.340;2022-11-15T12:32:02;3.38;;;1.30;;
75350;SDS011;63942;55.814;37.340;2022-11-15T12:36:55;3.42;;;1.30;;
75350;SDS011;63942;55.814;37.340;2022-11-15T12:39:21;5.20;;;1.30;;
75350;SDS011;63942;55.814;37.340;2022-11-15T12:44:56;3.78;;;1.40;;
75350;SDS011;63942;55.814;37.340;2022-11-15T12:47:24;4.72;;;1.45;;
75350;SDS011;63942;55.814;37.340;2022-11-15T12:49:50;4.43;;;1.38;;
75350;SDS011;63942;55.814;37.340;2022-11-15T12:52:16;4.30;;;1.50;;
75350;SDS011;63942;55.814;37.340;2022-11-15T13:02:24;4.07;;;1.40;;
75350;SDS011;63942;55.814;37.340;2022-11-15T13:04:52;3.17;;;1.20;;
75350;SDS011;63942;55.814;37.340;2022-11-15T13:17:47;6.38;;;1.95;;
75350;SDS011;63942;55.814;37.340;2022-11-15T13:22:40;6.13;;;1.40;;
75350;SDS011;63942;55.814;37.340;2022-11-15T13:28:08;5.90;;;1.52;;
75350;SDS011;63942;55.814;37.340;2022-11-15T13:30:35;3.47;;;1.17;;
75350;SDS011;63942;55.814;37.340;2022-11-15T13:33:09;5.88;;;1.40;;
75350;SDS011;63942;55.814;37.340;2022-11-15T13:35:38;4.85;;;1.50;;
75350;SDS011;63942;55.814;37.340;2022-11-15T13:38:05;4.20;;;1.40;;
75350;SDS011;63942;55.814;37.340;2022-11-15T13:40:35;5.10;;;1.40;;
75350;SDS011;63942;55.814;37.340;2022-11-15T13:43:23;4.88;;;1.55;;
75350;SDS011;63942;55.814;37.340;2022-11-15T13:46:15;5.15;;;1.40;;
75350;SDS011;63942;55.814;37.340;2022-11-15T13:48:42;4.68;;;1.63;;
75350;SDS011;63942;55.814;37.340;2022-11-15T13:51:12;6.47;;;1.70;;
75350;SDS011;63942;55.814;37.340;2022-11-15T13:53:42;4.78;;;1.50;;
75350;SDS011;63942;55.814;37.340;2022-11-15T13:56:11;5.88;;;1.70;;
75350;SDS011;63942;55.814;37.340;2022-11-15T13:58:38;4.47;;;1.70;;
75350;SDS011;63942;55.814;37.340;2022-11-15T14:01:05;5.88;;;1.60;;
75350;SDS011;63942;55.814;37.340;2022-11-15T14:03:32;3.92;;;1.40;;
75350;SDS011;63942;55.814;37.340;2022-11-15T14:06:09;4.18;;;1.40;;
75350;SDS011;63942;55.814;37.340;2022-11-15T14:08:40;6.03;;;1.52;;
75350;SDS011;63942;55.814;37.340;2022-11-15T14:11:17;3.70;;;1.50;;
75350;SDS011;63942;55.814;37.340;2022-11-15T14:16:46;3.83;;;1.60;;
75350;SDS011;63942;55.814;37.340;2022-11-15T14:19:32;4.78;;;1.50;;
75350;SDS011;63942;55.814;37.340;2022-11-15T14:24:34;6.57;;;1.55;;
75350;SDS011;63942;55.814;37.340;2022-11-15T14:27:23;7.10;;;1.70;;
75350;SDS011;63942;55.814;37.340;2022-11-15T14:29:50;3.95;;;1.35;;
75350;SDS011;63942;55.814;37.340;2022-11-15T14:32:18;3.28;;;1.38;;
75350;SDS011;63942;55.814;37.340;2022-11-15T14:34:45;4.03;;;1.50;;
75350;SDS011;63942;55.814;37.340;2022-11-15T14:37:18;5.43;;;1.40;;
75350;SDS011;63942;55.814;37.340;2022-11-15T14:39:44;7.00;;;1.90;;
75350;SDS011;63942;55.814;37.340;2022-11-15T14:42:10;4.10;;;1.48;;
75350;SDS011;63942;55.814;37.340;2022-11-15T14:44:37;3.20;;;1.23;;
75350;SDS011;63942;55.814;37.340;2022-11-15T14:47:03;4.25;;;1.65;;
75350;SDS011;63942;55.814;37.340;2022-11-15T14:49:29;5.97;;;1.55;;
75350;SDS011;63942;55.814;37.340;2022-11-15T14:51:55;5.20;;;1.73;;
75350;SDS011;63942;55.814;37.340;2022-11-15T14:54:21;4.00;;;1.70;;
75350;SDS011;63942;55.814;37.340;2022-11-15T14:56:47;4.80;;;1.60;;
75350;SDS011;63942;55.814;37.340;2022-11-15T14:59:13;5.28;;;1.60;;
75350;SDS011;63942;55.814;37.340;2022-11-15T15:01:39;4.57;;;1.50;;
75350;SDS011;63942;55.814;37.340;2022-11-15T15:04:05;5.03;;;1.75;;
75350;SDS011;63942;55.814;37.340;2022-11-15T15:06:31;4.95;;;2.00;;
75350;SDS011;63942;55.814;37.340;2022-11-15T15:08:59;6.15;;;1.60;;
75350;SDS011;63942;55.814;37.340;2022-11-15T15:11:28;6.03;;;1.58;;
75350;SDS011;63942;55.814;37.340;2022-11-15T15:13:55;3.92;;;1.60;;
75350;SDS011;63942;55.814;37.340;2022-11-15T15:16:26;4.93;;;1.73;;
75350;SDS011;63942;55.814;37.340;2022-11-15T15:18:52;4.05;;;1.60;;
75350;SDS011;63942;55.814;37.340;2022-11-15T15:21:20;6.70;;;1.77;;
75350;SDS011;63942;55.814;37.340;2022-11-15T15:23:46;3.88;;;1.42;;
75350;SDS011;63942;55.814;37.340;2022-11-15T15:26:13;4.60;;;1.80;;
75350;SDS011;63942;55.814;37.340;2022-11-15T15:28:42;4.68;;;1.90;;
75350;SDS011;63942;55.814;37.340;2022-11-15T15:31:09;3.72;;;1.55;;
75350;SDS011;63942;55.814;37.340;2022-11-15T15:33:37;6.13;;;1.80;;
75350;SDS011;63942;55.814;37.340;2022-11-15T15:36:03;6.68;;;2.00;;
75350;SDS011;63942;55.814;37.340;2022-11-15T15:38:30;4.97;;;1.88;;
75350;SDS011;63942;55.814;37.340;2022-11-15T15:40:56;4.28;;;1.80;;
75350;SDS011;63942;55.814;37.340;2022-11-15T15:43:24;5.28;;;1.83;;
75350;SDS011;63942;55.814;37.340;2022-11-15T15:45:51;5.75;;;1.95;;
75350;SDS011;63942;55.814;37.340;2022-11-15T15:48:17;6.35;;;2.38;;
75350;SDS011;63942;55.814;37.340;2022-11-15T15:50:44;7.00;;;1.90;;
75350;SDS011;63942;55.814;37.340;2022-11-15T15:53:11;4.35;;;1.90;;
75350;SDS011;63942;55.814;37.340;2022-11-15T15:55:39;5.13;;;2.10;;
75350;SDS011;63942;55.814;37.340;2022-11-15T15:58:06;8.20;;;2.67;;
75350;SDS011;63942;55.814;37.340;2022-11-15T16:00:33;4.70;;;1.88;;
75350;SDS011;63942;55.814;37.340;2022-11-15T16:03:00;5.80;;;2.08;;
75350;SDS011;63942;55.814;37.340;2022-11-15T16:05:28;5.68;;;2.00;;
75350;SDS011;63942;55.814;37.340;2022-11-15T16:07:55;5.18;;;1.92;;
75350;SDS011;63942;55.814;37.340;2022-11-15T16:12:52;6.30;;;1.80;;
75350;SDS011;63942;55.814;37.340;2022-11-15T16:15:20;5.78;;;1.60;;
75350;SDS011;63942;55.814;37.340;2022-11-15T16:17:49;5.60;;;1.70;;
75350;SDS011;63942;55.814;37.340;2022-11-15T16:20:24;4.63;;;1.50;;
75350;SDS011;63942;55.814;37.340;2022-11-15T16:22:53;7.53;;;2.00;;
75350;SDS011;63942;55.814;37.340;2022-11-15T16:25:19;5.63;;;2.03;;
75350;SDS011;63942;55.814;37.340;2022-11-15T16:27:45;5.03;;;2.20;;
75350;SDS011;63942;55.814;37.340;2022-11-15T16:30:14;4.25;;;2.08;;
75350;SDS011;63942;55.814;37.340;2022-11-15T16:32:40;5.57;;;1.92;;
75350;SDS011;63942;55.814;37.340;2022-11-15T16:35:13;4.32;;;2.10;;
75350;SDS011;63942;55.814;37.340;2022-11-15T16:37:39;5.00;;;1.70;;
75350;SDS011;63942;55.814;37.340;2022-11-15T16:40:30;5.53;;;1.90;;
75350;SDS011;63942;55.814;37.340;2022-11-15T16:42:55;4.50;;;2.10;;
75350;SDS011;63942;55.814;37.340;2022-11-15T16:45:22;6.32;;;2.30;;
75350;SDS011;63942;55.814;37.340;2022-11-15T16:47:48;6.18;;;1.90;;
75350;SDS011;63942;55.814;37.340;2022-11-15T16:50:28;5.15;;;2.20;;
75350;SDS011;63942;55.814;37.340;2022-11-15T16:52:55;7.15;;;2.20;;